createdAt,value
2019-03-17T00:02:27.859Z,21.35
2019-03-17T00:04:57.316Z,21.50
2019-03-17T00:07:26.763Z,21.68
2019-03-17T00:09:56.188Z,21.47
2019-03-17T00:12:25.629Z,22.22
2019-03-17T00:15:04.747Z,23.75
2019-03-17T00:17:26.183Z,23.47
2019-03-17T00:19:55.617Z,23.37
2019-03-17T00:22:25.087Z,24.32
2019-03-17T00:24:54.487Z,25.82
2019-03-17T00:27:23.908Z,27.67
2019-03-17T00:29:53.369Z,28.85
2019-03-17T00:32:22.849Z,28.10
2019-03-17T00:34:52.327Z,29.18
2019-03-17T00:37:21.735Z,28.47
2019-03-17T00:39:51.290Z,28.47
2019-03-17T00:42:20.742Z,27.65
2019-03-17T00:44:50.132Z,27.65
2019-03-17T00:47:19.557Z,27.37
2019-03-17T00:49:49.074Z,28.47
2019-03-17T00:52:18.395Z,27.07
2019-03-17T00:54:47.992Z,26.20
2019-03-17T00:57:17.325Z,26.23
2019-03-17T00:59:46.756Z,25.88
2019-03-17T01:02:16.271Z,26.77
2019-03-17T01:04:55.778Z,26.30
2019-03-17T01:07:16.739Z,25.72
2019-03-17T01:09:46.202Z,26.40
2019-03-17T01:12:15.593Z,25.12
2019-03-17T01:14:45.016Z,25.85
2019-03-17T01:17:14.533Z,26.17
2019-03-17T01:19:43.922Z,26.33
2019-03-17T01:22:13.395Z,26.70
2019-03-17T01:24:42.807Z,26.80
2019-03-17T01:27:12.244Z,25.62
2019-03-17T01:29:41.689Z,26.12
2019-03-17T01:32:11.103Z,27.00
2019-03-17T01:34:40.537Z,24.85
2019-03-17T01:37:09.927Z,24.55
2019-03-17T01:39:39.354Z,24.12
2019-03-17T01:42:08.698Z,23.45
2019-03-17T01:44:38.095Z,22.73
2019-03-17T01:47:07.449Z,23.65
2019-03-17T01:49:36.851Z,22.52
2019-03-17T01:52:06.292Z,23.55
2019-03-17T01:54:35.720Z,23.32
2019-03-17T01:57:05.212Z,22.87
2019-03-17T01:59:34.700Z,20.90
2019-03-17T02:02:04.133Z,21.07
2019-03-17T02:04:33.526Z,20.35
2019-03-17T02:07:02.965Z,18.62
2019-03-17T02:09:32.367Z,18.33
2019-03-17T02:12:01.804Z,18.40
2019-03-17T02:14:31.226Z,17.95
2019-03-17T02:17:00.661Z,17.67
2019-03-17T02:19:30.094Z,18.00
2019-03-17T02:21:59.500Z,18.00
2019-03-17T02:24:28.923Z,18.67
2019-03-17T02:26:58.332Z,19.12
2019-03-17T02:29:27.786Z,20.65
2019-03-17T02:31:57.193Z,21.33
2019-03-17T02:34:26.633Z,20.70
2019-03-17T02:36:56.059Z,21.85
2019-03-17T02:39:26.348Z,20.40
2019-03-17T02:41:56.011Z,18.75
2019-03-17T02:44:25.462Z,19.50
2019-03-17T02:46:54.837Z,19.80
2019-03-17T02:49:24.303Z,19.50
2019-03-17T02:51:53.694Z,20.02
2019-03-17T02:54:23.130Z,19.23
2019-03-17T02:56:52.595Z,19.37
2019-03-17T02:59:21.999Z,18.63
2019-03-17T03:01:51.501Z,18.10
2019-03-17T03:04:20.857Z,17.42
2019-03-17T03:06:50.296Z,18.02
2019-03-17T03:09:19.716Z,19.75
2019-03-17T03:11:49.150Z,18.90
2019-03-17T03:14:18.654Z,18.82
2019-03-17T03:16:48.056Z,19.45
2019-03-17T03:19:17.436Z,19.57
2019-03-17T03:21:46.873Z,18.70
2019-03-17T03:24:16.292Z,19.33
2019-03-17T03:26:45.781Z,18.92
2019-03-17T03:29:15.212Z,18.77
2019-03-17T03:31:44.615Z,19.00
2019-03-17T03:34:14.090Z,17.23
2019-03-17T03:36:43.473Z,17.50
2019-03-17T03:39:12.938Z,16.97
2019-03-17T03:41:42.454Z,16.95
2019-03-17T03:44:11.817Z,17.95
2019-03-17T03:46:41.273Z,17.40
2019-03-17T03:49:10.695Z,16.70
2019-03-17T03:51:40.120Z,18.85
2019-03-17T03:54:09.533Z,19.37
2019-03-17T03:56:38.960Z,17.32
2019-03-17T03:59:08.403Z,18.45
2019-03-17T04:01:37.836Z,18.67
2019-03-17T04:04:07.362Z,19.10
2019-03-17T04:06:36.803Z,18.95
2019-03-17T04:09:07.870Z,20.53
2019-03-17T04:11:37.278Z,20.23
2019-03-17T04:14:06.720Z,19.80
2019-03-17T04:16:36.126Z,19.17
2019-03-17T04:19:05.568Z,19.93
2019-03-17T04:21:34.996Z,20.68
2019-03-17T04:24:04.438Z,21.40
2019-03-17T04:26:33.847Z,21.12
2019-03-17T04:29:03.231Z,22.75
2019-03-17T04:31:32.683Z,23.33
2019-03-17T04:34:02.190Z,22.70
2019-03-17T04:36:40.001Z,22.55
2019-03-17T04:39:02.738Z,21.90
2019-03-17T04:41:32.142Z,24.63
2019-03-17T04:44:01.558Z,23.87
2019-03-17T04:46:30.969Z,23.02
2019-03-17T04:49:00.425Z,24.02
2019-03-17T04:51:30.134Z,24.57
2019-03-17T04:53:59.579Z,24.87
2019-03-17T04:56:28.944Z,25.23
2019-03-17T04:58:58.436Z,24.77
2019-03-17T05:01:27.871Z,24.63
2019-03-17T05:03:57.339Z,25.15
2019-03-17T05:06:26.904Z,24.47
2019-03-17T05:08:56.336Z,24.97
2019-03-17T05:11:25.759Z,23.55
2019-03-17T05:13:55.197Z,25.95
2019-03-17T05:16:24.676Z,25.23
2019-03-17T05:18:54.142Z,25.65
2019-03-17T05:21:23.591Z,25.25
2019-03-17T05:23:53.059Z,27.05
2019-03-17T05:26:22.557Z,29.92
2019-03-17T05:28:52.010Z,27.77
2019-03-17T05:31:21.452Z,25.88
2019-03-17T05:33:50.907Z,26.40
2019-03-17T05:36:20.314Z,27.58
2019-03-17T05:38:49.707Z,26.10
2019-03-17T05:41:19.203Z,26.68
2019-03-17T05:43:48.630Z,27.20
2019-03-17T05:46:18.120Z,25.17
2019-03-17T05:48:47.552Z,26.57
2019-03-17T05:51:17.159Z,27.35
2019-03-17T05:53:46.598Z,28.00
2019-03-17T05:56:16.060Z,27.42
2019-03-17T05:58:45.644Z,27.48
2019-03-17T06:01:15.148Z,28.40
2019-03-17T06:03:44.580Z,27.25
2019-03-17T06:06:14.172Z,26.63
2019-03-17T06:08:43.647Z,27.25
2019-03-17T06:11:13.115Z,26.95
2019-03-17T06:13:42.764Z,27.25
2019-03-17T06:16:12.300Z,30.75
2019-03-17T06:18:41.708Z,27.20
2019-03-17T06:21:11.148Z,28.60
2019-03-17T06:23:40.564Z,27.90
2019-03-17T06:26:10.055Z,26.30
2019-03-17T06:28:39.472Z,26.17
2019-03-17T06:31:08.982Z,26.33
2019-03-17T06:33:38.460Z,28.05
2019-03-17T06:36:07.898Z,29.77
2019-03-17T06:38:37.553Z,28.55
2019-03-17T06:41:06.992Z,29.25
2019-03-17T06:43:36.395Z,27.67
2019-03-17T06:46:05.866Z,28.00
2019-03-17T06:48:35.338Z,28.83
2019-03-17T06:51:04.712Z,31.00
2019-03-17T06:53:34.200Z,31.97
2019-03-17T06:56:03.643Z,32.15
2019-03-17T06:58:33.042Z,36.10
2019-03-17T07:01:02.522Z,28.12
2019-03-17T07:03:31.991Z,27.58
2019-03-17T07:06:01.439Z,27.80
2019-03-17T07:08:30.893Z,27.27
2019-03-17T07:11:00.320Z,25.75
2019-03-17T07:13:29.232Z,26.05
2019-03-17T07:15:58.123Z,24.87
2019-03-17T07:18:27.038Z,25.50
2019-03-17T07:20:55.933Z,24.82
2019-03-17T07:23:24.885Z,25.08
2019-03-17T07:25:53.920Z,25.08
2019-03-17T07:28:22.863Z,31.70
2019-03-17T07:30:51.742Z,132.93
2019-03-17T07:33:22.331Z,34.10
2019-03-17T07:35:51.306Z,22.80
2019-03-17T07:38:20.242Z,22.52
2019-03-17T07:40:49.133Z,25.23
2019-03-17T07:43:18.023Z,24.82
2019-03-17T07:45:46.915Z,23.27
2019-03-17T07:48:15.801Z,22.30
2019-03-17T07:50:44.679Z,19.40
2019-03-17T07:53:13.546Z,22.10
2019-03-17T07:55:42.495Z,20.15
2019-03-17T07:58:11.622Z,20.40
2019-03-17T08:00:40.482Z,24.72
2019-03-17T08:03:09.443Z,17.55
2019-03-17T08:05:38.347Z,17.00
2019-03-17T08:08:09.820Z,15.70
2019-03-17T08:10:37.843Z,15.90
2019-03-17T08:13:07.147Z,14.20
2019-03-17T08:15:36.372Z,15.28
2019-03-17T08:18:05.527Z,19.77
2019-03-17T08:20:34.531Z,16.67
2019-03-17T08:23:03.399Z,14.68
2019-03-17T08:25:32.276Z,14.70
2019-03-17T08:28:01.232Z,15.90
2019-03-17T08:30:30.097Z,12.50
2019-03-17T08:32:59.093Z,15.48
2019-03-17T08:35:28.031Z,12.10
2019-03-17T08:37:56.926Z,17.80
2019-03-17T08:40:25.815Z,11.47
2019-03-17T08:42:54.723Z,11.33
2019-03-17T08:45:23.906Z,14.30
2019-03-17T08:47:58.348Z,53.53
2019-03-17T08:50:23.638Z,42.48
2019-03-17T08:52:52.518Z,24.45
2019-03-17T08:55:21.418Z,51.68
2019-03-17T08:57:51.184Z,16.60
2019-03-17T09:00:20.724Z,10.68
2019-03-17T09:02:49.602Z,10.53
2019-03-17T09:05:18.813Z,9.38
2019-03-17T09:07:47.705Z,8.83
2019-03-17T09:10:16.703Z,8.15
2019-03-17T09:12:45.607Z,8.70
2019-03-17T09:15:14.621Z,8.93
2019-03-17T09:17:44.135Z,8.45
2019-03-17T09:20:13.670Z,7.60
2019-03-17T09:22:42.566Z,8.20
2019-03-17T09:25:11.627Z,7.78
2019-03-17T09:27:40.493Z,8.10
2019-03-17T09:30:10.170Z,7.53
2019-03-17T09:32:39.076Z,7.15
2019-03-17T09:35:08.310Z,7.87
2019-03-17T09:37:37.217Z,7.53
2019-03-17T09:40:06.408Z,8.43
2019-03-17T09:42:35.296Z,7.28
2019-03-17T09:45:19.374Z,6.58
2019-03-17T09:47:48.295Z,7.47
2019-03-17T09:51:08.652Z,7.05
2019-03-17T09:53:37.572Z,7.45
2019-03-17T09:56:06.610Z,7.40
2019-03-17T09:58:35.494Z,4.45
2019-03-17T10:01:04.388Z,6.97
2019-03-17T10:03:33.349Z,5.08
2019-03-17T10:06:40.924Z,5.23
2019-03-17T10:12:43.722Z,6.07
2019-03-17T10:15:12.916Z,6.20
2019-03-17T10:17:41.774Z,7.03
2019-03-17T10:27:06.097Z,5.30
2019-03-17T10:29:35.009Z,4.87
2019-03-17T10:32:03.921Z,6.80
2019-03-17T10:34:32.786Z,6.47
2019-03-17T10:37:01.770Z,4.67
2019-03-17T10:39:30.652Z,5.78
2019-03-17T10:42:00.488Z,5.40
2019-03-17T10:44:29.911Z,4.78
2019-03-17T10:47:00.015Z,4.85
2019-03-17T10:49:29.531Z,4.50
2019-03-17T10:51:59.627Z,4.72
2019-03-17T10:54:28.772Z,3.70
2019-03-17T10:56:57.629Z,5.67
2019-03-17T10:59:27.840Z,5.87
2019-03-17T11:01:57.412Z,5.65
2019-03-17T11:04:26.871Z,5.25
2019-03-17T11:06:56.392Z,5.30
2019-03-17T11:09:25.935Z,5.40
2019-03-17T11:11:55.310Z,5.80
2019-03-17T11:14:24.228Z,4.47
2019-03-17T11:16:53.322Z,4.75
2019-03-17T11:19:24.569Z,4.90
2019-03-17T11:21:53.009Z,4.47
2019-03-17T11:24:22.449Z,4.85
2019-03-17T11:26:51.928Z,4.55
2019-03-17T11:29:21.426Z,4.10
2019-03-17T11:31:50.867Z,4.33
2019-03-17T11:34:20.321Z,4.30
2019-03-17T11:36:49.975Z,4.12
2019-03-17T11:39:19.592Z,3.90
2019-03-17T11:41:49.031Z,3.72
2019-03-17T11:44:18.881Z,3.55
2019-03-17T11:46:48.357Z,3.52
2019-03-17T11:49:18.166Z,3.85
2019-03-17T11:51:47.644Z,3.33
2019-03-17T11:54:17.194Z,3.40
2019-03-17T11:56:46.856Z,3.60
2019-03-17T11:59:16.374Z,3.47
2019-03-17T12:01:45.252Z,3.30
2019-03-17T12:04:14.202Z,3.12
2019-03-17T12:06:43.681Z,2.97
2019-03-17T12:09:12.664Z,3.17
2019-03-17T12:11:42.095Z,3.03
2019-03-17T12:14:11.545Z,3.30
2019-03-17T12:16:40.508Z,2.85
2019-03-17T12:19:09.948Z,2.83
2019-03-17T12:21:39.431Z,2.62
2019-03-17T12:24:08.904Z,3.00
2019-03-17T12:26:37.876Z,3.05
2019-03-17T12:29:07.861Z,3.15
2019-03-17T12:31:36.732Z,2.77
2019-03-17T12:34:05.808Z,2.92
2019-03-17T12:36:34.694Z,3.10
2019-03-17T12:39:05.274Z,3.00
2019-03-17T12:41:34.781Z,3.35
2019-03-17T12:44:03.784Z,2.95
2019-03-17T12:46:33.276Z,3.00
2019-03-17T12:49:02.738Z,2.60
2019-03-17T12:51:32.277Z,2.57
2019-03-17T12:54:01.670Z,2.55
2019-03-17T12:56:30.592Z,2.60
2019-03-17T12:58:59.453Z,2.90
2019-03-17T13:01:28.936Z,2.57
2019-03-17T13:03:57.840Z,2.37
2019-03-17T13:06:26.838Z,2.47
2019-03-17T13:08:55.888Z,2.50
2019-03-17T13:11:25.337Z,2.60
2019-03-17T13:13:54.947Z,2.70
2019-03-17T13:16:24.437Z,2.67
2019-03-17T13:18:54.016Z,3.02
2019-03-17T13:21:24.005Z,2.52
2019-03-17T13:23:53.178Z,3.12
2019-03-17T13:26:22.431Z,2.83
2019-03-17T13:28:51.513Z,3.00
2019-03-17T13:31:20.646Z,2.90
2019-03-17T13:33:49.581Z,2.87
2019-03-17T13:36:18.571Z,2.65
2019-03-17T13:38:48.055Z,2.60
2019-03-17T13:41:16.952Z,2.83
2019-03-17T13:43:46.010Z,3.02
2019-03-17T13:46:14.921Z,2.72
2019-03-17T13:48:43.841Z,2.40
2019-03-17T13:51:13.329Z,2.60
2019-03-17T13:53:42.728Z,2.60
2019-03-17T13:56:11.638Z,2.40
2019-03-17T13:58:41.074Z,2.47
2019-03-17T14:01:09.896Z,2.43
2019-03-17T14:03:39.511Z,2.67
2019-03-17T14:06:09.415Z,2.60
2019-03-17T14:08:38.340Z,2.08
2019-03-17T14:11:07.945Z,2.62
2019-03-17T14:13:37.495Z,2.50
2019-03-17T14:16:06.389Z,2.58
2019-03-17T14:18:35.865Z,2.77
2019-03-17T14:21:05.443Z,2.80
2019-03-17T14:23:34.943Z,2.70
2019-03-17T14:26:03.935Z,3.00
2019-03-17T14:28:33.021Z,2.60
2019-03-17T14:31:02.199Z,2.47
2019-03-17T14:33:31.409Z,2.40
2019-03-17T14:36:00.289Z,2.83
2019-03-17T14:38:29.260Z,2.80
2019-03-17T14:40:58.760Z,2.77
2019-03-17T14:43:28.342Z,2.60
2019-03-17T14:45:57.937Z,2.63
2019-03-17T14:48:27.388Z,2.75
2019-03-17T14:50:56.298Z,12.23
2019-03-17T14:53:25.215Z,2.70
2019-03-17T14:55:54.096Z,2.62
2019-03-17T14:58:26.107Z,2.65
2019-03-17T15:10:28.930Z,2.30
2019-03-17T15:12:58.413Z,2.30
2019-03-17T15:15:27.913Z,2.50
2019-03-17T15:17:57.519Z,2.30
2019-03-17T15:20:26.401Z,2.47
2019-03-17T15:22:56.028Z,2.37
2019-03-17T15:25:25.475Z,2.20
2019-03-17T15:27:54.355Z,2.30
2019-03-17T15:30:25.640Z,2.30
2019-03-17T15:32:55.062Z,2.40
2019-03-17T15:35:24.552Z,2.55
2019-03-17T15:37:54.224Z,2.45
2019-03-17T15:40:23.826Z,2.30
2019-03-17T15:42:55.696Z,3.75
2019-03-17T15:45:25.370Z,2.87
2019-03-17T15:47:54.204Z,2.40
2019-03-17T15:50:23.720Z,2.42
2019-03-17T15:52:52.528Z,2.20
2019-03-17T15:55:21.974Z,2.40
2019-03-17T15:57:51.436Z,2.47
2019-03-17T16:00:25.649Z,2.27
2019-03-17T16:02:53.426Z,2.42
2019-03-17T16:05:22.890Z,2.12
2019-03-17T16:07:52.329Z,2.33
2019-03-17T16:10:22.024Z,3.95
2019-03-17T16:12:51.556Z,2.50
2019-03-17T16:15:21.121Z,2.62
2019-03-17T16:17:50.641Z,3.10
2019-03-17T16:20:20.742Z,2.80
2019-03-17T16:22:50.185Z,3.10
2019-03-17T16:25:19.729Z,3.60
2019-03-17T16:27:49.575Z,3.40
2019-03-17T16:30:20.704Z,3.17
2019-03-17T16:32:50.150Z,2.90
2019-03-17T16:35:19.599Z,2.85
2019-03-17T16:37:49.226Z,2.90
2019-03-17T16:40:20.611Z,2.60
2019-03-17T16:42:50.053Z,2.87
2019-03-17T16:45:20.136Z,7.83
2019-03-17T16:47:49.606Z,15.20
2019-03-17T16:50:19.437Z,11.73
2019-03-17T16:52:48.893Z,8.38
2019-03-17T16:55:18.741Z,3.75
2019-03-17T16:57:48.271Z,5.15
2019-03-17T17:00:19.430Z,4.67
2019-03-17T17:02:49.397Z,6.62
2019-03-17T17:05:19.009Z,6.75
2019-03-17T17:07:48.714Z,4.17
2019-03-17T17:10:18.864Z,9.30
2019-03-17T17:12:48.374Z,6.97
2019-03-17T17:15:19.789Z,7.85
2019-03-17T17:17:49.753Z,7.30
2019-03-17T17:20:24.754Z,10.00
2019-03-17T17:22:54.687Z,11.88
2019-03-17T17:25:24.195Z,11.85
2019-03-17T17:27:53.747Z,11.90
2019-03-17T17:30:23.339Z,9.78
2019-03-17T17:32:52.855Z,11.83
2019-03-17T17:35:22.351Z,16.87
2019-03-17T17:37:52.005Z,263.68
2019-03-17T17:40:21.613Z,49.73
2019-03-17T17:42:51.102Z,30.30
2019-03-17T17:45:20.714Z,386.05
2019-03-17T17:47:50.188Z,362.10
2019-03-17T17:50:19.925Z,112.73
2019-03-17T17:52:49.439Z,54.38
2019-03-17T17:55:18.871Z,53.40
2019-03-17T17:57:48.638Z,35.50
2019-03-17T18:00:20.424Z,27.95
2019-03-17T18:02:50.131Z,44.83
2019-03-17T18:05:19.577Z,28.23
2019-03-17T18:07:49.079Z,24.67
2019-03-17T18:10:18.785Z,25.70
2019-03-17T18:12:48.362Z,19.80
2019-03-17T18:15:20.532Z,14.63
2019-03-17T18:17:50.162Z,14.25
2019-03-17T18:20:19.698Z,14.98
2019-03-17T18:22:49.497Z,17.42
2019-03-17T18:25:19.184Z,25.95
2019-03-17T18:27:48.755Z,24.63
2019-03-17T18:30:18.613Z,31.12
2019-03-17T18:32:48.066Z,80.72
2019-03-17T18:35:17.979Z,80.77
2019-03-17T18:37:47.447Z,51.00
2019-03-17T18:40:17.028Z,31.57
2019-03-17T18:42:46.512Z,23.38
2019-03-17T18:45:17.672Z,26.40
2019-03-17T18:47:47.186Z,33.30
2019-03-17T18:50:20.611Z,62.73
2019-03-17T18:52:48.149Z,70.95
2019-03-17T18:55:17.913Z,60.25
2019-03-17T18:57:50.068Z,53.00
2019-03-17T19:00:20.138Z,44.33
2019-03-17T19:02:49.744Z,31.20
2019-03-17T19:05:20.246Z,28.73
2019-03-17T19:07:50.019Z,26.65
2019-03-17T19:10:19.903Z,27.93
2019-03-17T19:12:49.977Z,25.97
2019-03-17T19:15:19.949Z,27.82
2019-03-17T19:17:49.401Z,29.15
2019-03-17T19:20:18.905Z,32.10
2019-03-17T19:22:48.507Z,31.02
2019-03-17T19:25:18.001Z,29.35
2019-03-17T19:27:47.456Z,30.08
2019-03-17T19:30:18.047Z,27.00
2019-03-17T19:32:47.679Z,26.02
2019-03-17T19:35:17.337Z,26.65
2019-03-17T19:37:46.936Z,27.22
2019-03-17T19:40:16.422Z,25.12
2019-03-17T19:42:58.011Z,25.15
2019-03-17T19:45:17.534Z,24.33
2019-03-17T19:47:46.981Z,24.32
2019-03-17T19:50:16.428Z,24.20
2019-03-17T19:52:46.315Z,24.70
2019-03-17T19:55:15.728Z,23.55
2019-03-17T19:57:46.369Z,23.42
2019-03-17T20:00:16.272Z,22.40
2019-03-17T20:02:47.803Z,27.85
2019-03-17T20:05:17.116Z,28.07
2019-03-17T20:07:46.498Z,32.60
2019-03-17T20:10:18.881Z,45.12
2019-03-17T20:12:48.533Z,48.50
2019-03-17T20:15:18.226Z,51.13
2019-03-17T20:17:48.109Z,51.20
2019-03-17T20:20:18.130Z,97.82
2019-03-17T20:22:47.803Z,67.03
2019-03-17T20:25:17.468Z,59.98
2019-03-17T20:27:46.918Z,55.70
2019-03-17T20:30:16.579Z,51.77
2019-03-17T20:32:46.231Z,49.63
2019-03-17T20:35:15.716Z,45.55
2019-03-17T20:37:45.464Z,42.25
2019-03-17T20:40:14.929Z,48.28
2019-03-17T20:42:44.406Z,48.02
2019-03-17T20:45:14.135Z,40.17
2019-03-17T20:47:43.632Z,38.90
2019-03-17T20:50:13.119Z,41.77
2019-03-17T20:52:42.726Z,44.13
2019-03-17T20:55:12.906Z,39.10
2019-03-17T20:57:42.361Z,39.73
2019-03-17T21:00:13.799Z,38.58
2019-03-17T21:02:43.294Z,41.42
2019-03-17T21:05:13.081Z,36.50
2019-03-17T21:07:44.405Z,46.73
2019-03-17T21:10:13.886Z,34.40
2019-03-17T21:12:43.492Z,30.40
2019-03-17T21:15:13.034Z,29.55
2019-03-17T21:17:42.514Z,29.48
2019-03-17T21:20:13.646Z,29.92
2019-03-17T21:22:43.568Z,31.93
2019-03-17T21:25:13.223Z,32.00
2019-03-17T21:27:43.988Z,33.13
2019-03-17T21:30:17.158Z,39.65
2019-03-17T21:32:47.950Z,36.00
2019-03-17T21:35:17.396Z,38.38
2019-03-17T21:37:46.878Z,30.05
2019-03-17T21:40:16.785Z,31.62
2019-03-17T21:42:46.252Z,32.87
2019-03-17T21:45:15.727Z,35.60
2019-03-17T21:47:47.542Z,37.83
2019-03-17T21:50:18.338Z,40.97
2019-03-17T21:52:47.753Z,39.50
2019-03-17T21:55:17.371Z,43.10
2019-03-17T21:57:47.016Z,42.33
2019-03-17T22:00:16.767Z,40.78
2019-03-17T22:02:46.483Z,37.05
2019-03-17T22:05:16.153Z,38.02
2019-03-17T22:07:50.385Z,39.45
2019-03-17T22:10:17.226Z,38.65
2019-03-17T22:12:49.030Z,32.88
2019-03-17T22:15:18.725Z,31.90
2019-03-17T22:17:48.210Z,30.75
2019-03-17T22:20:17.916Z,31.20
2019-03-17T22:22:47.448Z,31.68
2019-03-17T22:25:17.356Z,28.40
2019-03-17T22:27:46.894Z,17.70
2019-03-17T22:30:16.414Z,17.55
2019-03-17T22:32:45.378Z,12.95
2019-03-17T22:35:15.284Z,13.15
2019-03-17T22:37:45.135Z,12.25
2019-03-17T22:40:15.032Z,22.85
2019-03-17T22:42:44.770Z,13.22
2019-03-17T22:45:14.983Z,11.00
2019-03-17T22:47:44.102Z,8.70
2019-03-17T22:50:13.543Z,8.13
2019-03-17T22:52:42.360Z,7.70
2019-03-17T22:55:12.381Z,5.75
2019-03-17T22:57:41.199Z,5.40
2019-03-17T23:00:13.561Z,4.65
2019-03-17T23:02:43.861Z,4.40
2019-03-17T23:05:14.575Z,3.60
2019-03-17T23:07:44.262Z,3.35
2019-03-17T23:10:14.048Z,2.77
2019-03-17T23:12:43.968Z,2.35
2019-03-17T23:15:13.838Z,2.12
2019-03-17T23:17:43.859Z,2.08
2019-03-17T23:20:14.241Z,2.00
2019-03-17T23:22:44.045Z,1.60
2019-03-17T23:25:13.898Z,2.10
2019-03-17T23:27:43.497Z,1.87
2019-03-17T23:30:13.469Z,1.70
2019-03-17T23:32:43.176Z,1.90
2019-03-17T23:35:13.224Z,1.62
2019-03-17T23:37:43.163Z,1.85
2019-03-17T23:40:12.947Z,1.77
2019-03-17T23:42:42.688Z,1.62
2019-03-17T23:45:12.501Z,1.70
2019-03-17T23:47:42.268Z,2.12
2019-03-17T23:50:12.370Z,1.60
2019-03-17T23:52:42.551Z,1.32
2019-03-17T23:55:12.548Z,1.50
2019-03-17T23:57:42.699Z,1.50
